sensor_id;sensor_type;location;lat;lon;timestamp;temperature;humidity
64939;DHT22;51453;47.738;7.420;2023-06-01T00:01:27;17.30;97.90
64939;DHT22;51453;47.738;7.420;2023-06-01T00:04:01;17.30;98.20
64939;DHT22;51453;47.738;7.420;2023-06-01T00:06:26;17.30;98.20
64939;DHT22;51453;47.738;7.420;2023-06-01T00:08:56;17.30;97.90
64939;DHT22;51453;47.738;7.420;2023-06-01T00:11:22;17.30;97.90
64939;DHT22;51453;47.738;7.420;2023-06-01T00:13:48;17.30;98.10
64939;DHT22;51453;47.738;7.420;2023-06-01T00:16:15;17.30;98.20
64939;DHT22;51453;47.738;7.420;2023-06-01T00:18:40;17.20;98.40
64939;DHT22;51453;47.738;7.420;2023-06-01T00:21:06;17.20;98.30
64939;DHT22;51453;47.738;7.420;2023-06-01T00:23:32;17.20;98.30
64939;DHT22;51453;47.738;7.420;2023-06-01T00:26:00;17.20;98.60
64939;DHT22;51453;47.738;7.420;2023-06-01T00:28:25;17.20;98.10
64939;DHT22;51453;47.738;7.420;2023-06-01T00:30:51;17.10;98.20
64939;DHT22;51453;47.738;7.420;2023-06-01T00:33:19;17.20;98.20
64939;DHT22;51453;47.738;7.420;2023-06-01T00:35:44;17.10;98.20
64939;DHT22;51453;47.738;7.420;2023-06-01T00:38:10;17.10;98.30
64939;DHT22;51453;47.738;7.420;2023-06-01T00:40:35;17.10;98.70
64939;DHT22;51453;47.738;7.420;2023-06-01T00:43:01;17.10;98.50
64939;DHT22;51453;47.738;7.420;2023-06-01T00:45:27;17.10;98.90
64939;DHT22;51453;47.738;7.420;2023-06-01T00:47:53;17.00;99.30
64939;DHT22;51453;47.738;7.420;2023-06-01T00:50:18;16.90;99.90
64939;DHT22;51453;47.738;7.420;2023-06-01T00:52:45;16.90;99.50
64939;DHT22;51453;47.738;7.420;2023-06-01T00:55:11;16.80;99.70
64939;DHT22;51453;47.738;7.420;2023-06-01T00:57:38;16.80;99.20
64939;DHT22;51453;47.738;7.420;2023-06-01T01:00:05;16.80;99.50
64939;DHT22;51453;47.738;7.420;2023-06-01T01:02:38;16.80;99.40
64939;DHT22;51453;47.738;7.420;2023-06-01T01:05:06;16.80;99.30
64939;DHT22;51453;47.738;7.420;2023-06-01T01:10:25;16.70;99.60
64939;DHT22;51453;47.738;7.420;2023-06-01T01:13:10;16.70;99.80
64939;DHT22;51453;47.738;7.420;2023-06-01T01:18:24;16.60;99.60
64939;DHT22;51453;47.738;7.420;2023-06-01T01:20:58;16.60;99.90
64939;DHT22;51453;47.738;7.420;2023-06-01T01:26:42;16.50;99.70
64939;DHT22;51453;47.738;7.420;2023-06-01T01:29:13;16.50;99.80
64939;DHT22;51453;47.738;7.420;2023-06-01T01:31:40;16.50;99.00
64939;DHT22;51453;47.738;7.420;2023-06-01T01:34:07;16.50;99.80
64939;DHT22;51453;47.738;7.420;2023-06-01T01:36:35;16.60;99.90
64939;DHT22;51453;47.738;7.420;2023-06-01T01:39:02;16.50;99.90
64939;DHT22;51453;47.738;7.420;2023-06-01T01:41:28;16.40;99.90
64939;DHT22;51453;47.738;7.420;2023-06-01T01:43:54;16.30;99.90
64939;DHT22;51453;47.738;7.420;2023-06-01T01:46:52;16.20;99.90
64939;DHT22;51453;47.738;7.420;2023-06-01T01:52:08;16.20;99.90
64939;DHT22;51453;47.738;7.420;2023-06-01T01:54:37;16.00;99.90
64939;DHT22;51453;47.738;7.420;2023-06-01T01:57:04;15.90;99.90
64939;DHT22;51453;47.738;7.420;2023-06-01T01:59:31;15.80;99.90
64939;DHT22;51453;47.738;7.420;2023-06-01T02:01:57;15.70;99.90
64939;DHT22;51453;47.738;7.420;2023-06-01T02:04:23;15.60;99.90
64939;DHT22;51453;47.738;7.420;2023-06-01T02:06:49;15.40;99.90
64939;DHT22;51453;47.738;7.420;2023-06-01T02:09:14;15.20;99.90
64939;DHT22;51453;47.738;7.420;2023-06-01T02:11:40;15.10;99.90
64939;DHT22;51453;47.738;7.420;2023-06-01T02:14:06;15.00;99.90
64939;DHT22;51453;47.738;7.420;2023-06-01T02:16:31;14.90;99.90
64939;DHT22;51453;47.738;7.420;2023-06-01T02:18:57;14.80;99.90
64939;DHT22;51453;47.738;7.420;2023-06-01T02:21:25;14.70;99.90
64939;DHT22;51453;47.738;7.420;2023-06-01T02:23:51;14.50;99.90
64939;DHT22;51453;47.738;7.420;2023-06-01T02:26:17;14.50;99.90
64939;DHT22;51453;47.738;7.420;2023-06-01T02:28:43;14.40;99.90
64939;DHT22;51453;47.738;7.420;2023-06-01T02:31:09;14.30;99.90
64939;DHT22;51453;47.738;7.420;2023-06-01T02:33:35;14.30;99.90
64939;DHT22;51453;47.738;7.420;2023-06-01T02:36:01;14.20;99.90
64939;DHT22;51453;47.738;7.420;2023-06-01T02:38:27;14.20;99.90
64939;DHT22;51453;47.738;7.420;2023-06-01T02:40:52;14.10;99.90
64939;DHT22;51453;47.738;7.420;2023-06-01T02:43:18;14.00;99.90
64939;DHT22;51453;47.738;7.420;2023-06-01T02:45:44;14.00;99.90
64939;DHT22;51453;47.738;7.420;2023-06-01T02:48:10;13.90;99.90
64939;DHT22;51453;47.738;7.420;2023-06-01T02:50:36;13.90;99.90
64939;DHT22;51453;47.738;7.420;2023-06-01T02:53:02;13.80;99.90
64939;DHT22;51453;47.738;7.420;2023-06-01T02:55:27;13.80;99.90
64939;DHT22;51453;47.738;7.420;2023-06-01T02:57:53;13.70;99.90
64939;DHT22;51453;47.738;7.420;2023-06-01T03:00:19;13.70;99.90
64939;DHT22;51453;47.738;7.420;2023-06-01T03:02:45;13.60;99.90
64939;DHT22;51453;47.738;7.420;2023-06-01T03:05:12;13.50;99.90
64939;DHT22;51453;47.738;7.420;2023-06-01T03:07:42;13.50;99.90
64939;DHT22;51453;47.738;7.420;2023-06-01T03:10:09;13.50;99.90
64939;DHT22;51453;47.738;7.420;2023-06-01T03:12:35;13.40;99.90
64939;DHT22;51453;47.738;7.420;2023-06-01T03:15:01;13.40;99.90
64939;DHT22;51453;47.738;7.420;2023-06-01T03:17:26;13.30;99.90
64939;DHT22;51453;47.738;7.420;2023-06-01T03:19:52;13.30;99.90
64939;DHT22;51453;47.738;7.420;2023-06-01T03:22:18;13.30;99.90
64939;DHT22;51453;47.738;7.420;2023-06-01T03:24:43;13.30;99.90
64939;DHT22;51453;47.738;7.420;2023-06-01T03:27:09;13.30;99.90
64939;DHT22;51453;47.738;7.420;2023-06-01T03:29:36;13.20;99.90
64939;DHT22;51453;47.738;7.420;2023-06-01T03:32:02;13.20;99.90
64939;DHT22;51453;47.738;7.420;2023-06-01T03:34:28;13.20;99.90
64939;DHT22;51453;47.738;7.420;2023-06-01T03:36:55;13.10;99.90
64939;DHT22;51453;47.738;7.420;2023-06-01T03:39:21;13.20;99.90
64939;DHT22;51453;47.738;7.420;2023-06-01T03:41:47;13.10;99.90
64939;DHT22;51453;47.738;7.420;2023-06-01T03:44:13;13.20;99.90
64939;DHT22;51453;47.738;7.420;2023-06-01T03:46:39;13.10;99.90
64939;DHT22;51453;47.738;7.420;2023-06-01T03:49:05;13.20;99.90
64939;DHT22;51453;47.738;7.420;2023-06-01T03:51:31;13.20;99.90
64939;DHT22;51453;47.738;7.420;2023-06-01T03:53:57;13.20;99.90
64939;DHT22;51453;47.738;7.420;2023-06-01T03:56:23;13.20;99.90
64939;DHT22;51453;47.738;7.420;2023-06-01T03:58:49;13.20;99.90
64939;DHT22;51453;47.738;7.420;2023-06-01T04:01:16;13.20;99.90
64939;DHT22;51453;47.738;7.420;2023-06-01T04:03:46;13.20;99.90
64939;DHT22;51453;47.738;7.420;2023-06-01T04:06:14;13.20;99.90
64939;DHT22;51453;47.738;7.420;2023-06-01T04:08:43;13.20;99.90
64939;DHT22;51453;47.738;7.420;2023-06-01T04:11:15;13.30;99.90
64939;DHT22;51453;47.738;7.420;2023-06-01T04:13:41;13.30;99.90
64939;DHT22;51453;47.738;7.420;2023-06-01T04:16:07;13.50;99.90
64939;DHT22;51453;47.738;7.420;2023-06-01T04:18:33;13.70;99.90
64939;DHT22;51453;47.738;7.420;2023-06-01T04:20:58;14.10;99.90
64939;DHT22;51453;47.738;7.420;2023-06-01T04:23:24;14.90;99.90
64939;DHT22;51453;47.738;7.420;2023-06-01T04:25:50;15.90;99.90
64939;DHT22;51453;47.738;7.420;2023-06-01T04:28:19;16.90;99.90
64939;DHT22;51453;47.738;7.420;2023-06-01T04:30:45;17.80;99.90
64939;DHT22;51453;47.738;7.420;2023-06-01T04:33:13;18.70;99.90
64939;DHT22;51453;47.738;7.420;2023-06-01T04:35:39;19.30;99.90
64939;DHT22;51453;47.738;7.420;2023-06-01T04:38:05;19.90;99.90
64939;DHT22;51453;47.738;7.420;2023-06-01T04:40:30;20.40;99.90
64939;DHT22;51453;47.738;7.420;2023-06-01T04:42:56;20.70;99.90
64939;DHT22;51453;47.738;7.420;2023-06-01T04:45:23;21.10;99.90
64939;DHT22;51453;47.738;7.420;2023-06-01T04:47:50;21.50;99.90
64939;DHT22;51453;47.738;7.420;2023-06-01T04:50:17;22.10;99.90
64939;DHT22;51453;47.738;7.420;2023-06-01T04:52:43;22.70;99.90
64939;DHT22;51453;47.738;7.420;2023-06-01T04:55:11;23.20;99.90
64939;DHT22;51453;47.738;7.420;2023-06-01T04:57:40;23.70;99.90
64939;DHT22;51453;47.738;7.420;2023-06-01T05:00:09;24.00;99.80
64939;DHT22;51453;47.738;7.420;2023-06-01T05:02:41;24.50;99.90
64939;DHT22;51453;47.738;7.420;2023-06-01T05:05:10;24.70;98.40
64939;DHT22;51453;47.738;7.420;2023-06-01T05:07:37;24.70;97.50
64939;DHT22;51453;47.738;7.420;2023-06-01T05:10:03;24.70;97.60
64939;DHT22;51453;47.738;7.420;2023-06-01T05:12:32;24.40;96.40
64939;DHT22;51453;47.738;7.420;2023-06-01T05:14:58;24.50;97.10
64939;DHT22;51453;47.738;7.420;2023-06-01T05:17:24;24.40;97.70
64939;DHT22;51453;47.738;7.420;2023-06-01T05:19:49;24.60;95.60
64939;DHT22;51453;47.738;7.420;2023-06-01T05:22:15;24.60;96.20
64939;DHT22;51453;47.738;7.420;2023-06-01T05:24:40;24.70;96.30
64939;DHT22;51453;47.738;7.420;2023-06-01T05:27:06;24.70;97.30
64939;DHT22;51453;47.738;7.420;2023-06-01T05:29:32;24.50;95.70
64939;DHT22;51453;47.738;7.420;2023-06-01T05:31:57;24.50;95.90
64939;DHT22;51453;47.738;7.420;2023-06-01T05:34:23;23.70;96.30
64939;DHT22;51453;47.738;7.420;2023-06-01T05:36:49;23.50;97.20
64939;DHT22;51453;47.738;7.420;2023-06-01T05:39:15;23.40;97.00
64939;DHT22;51453;47.738;7.420;2023-06-01T05:41:40;22.80;96.80
64939;DHT22;51453;47.738;7.420;2023-06-01T05:44:06;21.70;99.50
64939;DHT22;51453;47.738;7.420;2023-06-01T05:46:32;21.60;99.90
64939;DHT22;51453;47.738;7.420;2023-06-01T05:48:58;21.70;99.90
64939;DHT22;51453;47.738;7.420;2023-06-01T05:51:23;21.00;99.90
64939;DHT22;51453;47.738;7.420;2023-06-01T05:53:49;20.90;99.90
64939;DHT22;51453;47.738;7.420;2023-06-01T05:56:15;20.90;99.90
64939;DHT22;51453;47.738;7.420;2023-06-01T05:58:42;20.50;99.90
64939;DHT22;51453;47.738;7.420;2023-06-01T06:01:08;20.50;99.90
64939;DHT22;51453;47.738;7.420;2023-06-01T06:03:34;20.50;99.90
64939;DHT22;51453;47.738;7.420;2023-06-01T06:06:00;21.10;99.90
64939;DHT22;51453;47.738;7.420;2023-06-01T06:08:26;21.70;99.90
64939;DHT22;51453;47.738;7.420;2023-06-01T06:10:52;22.00;99.90
64939;DHT22;51453;47.738;7.420;2023-06-01T06:13:18;22.50;99.90
64939;DHT22;51453;47.738;7.420;2023-06-01T06:15:44;22.80;99.40
64939;DHT22;51453;47.738;7.420;2023-06-01T06:18:10;23.00;99.00
64939;DHT22;51453;47.738;7.420;2023-06-01T06:20:36;22.90;99.00
64939;DHT22;51453;47.738;7.420;2023-06-01T06:23:01;22.90;98.90
64939;DHT22;51453;47.738;7.420;2023-06-01T06:25:27;22.90;99.10
64939;DHT22;51453;47.738;7.420;2023-06-01T06:27:53;23.10;99.90
64939;DHT22;51453;47.738;7.420;2023-06-01T06:30:18;23.40;98.50
64939;DHT22;51453;47.738;7.420;2023-06-01T06:32:44;23.90;97.40
64939;DHT22;51453;47.738;7.420;2023-06-01T06:35:10;24.10;98.10
64939;DHT22;51453;47.738;7.420;2023-06-01T06:37:40;24.30;98.70
64939;DHT22;51453;47.738;7.420;2023-06-01T06:40:06;24.40;97.90
64939;DHT22;51453;47.738;7.420;2023-06-01T06:42:32;24.20;96.80
64939;DHT22;51453;47.738;7.420;2023-06-01T06:44:57;23.10;98.10
64939;DHT22;51453;47.738;7.420;2023-06-01T06:47:23;23.00;98.00
64939;DHT22;51453;47.738;7.420;2023-06-01T06:49:50;22.90;99.90
64939;DHT22;51453;47.738;7.420;2023-06-01T06:52:16;23.50;99.20
64939;DHT22;51453;47.738;7.420;2023-06-01T06:54:43;23.90;98.70
64939;DHT22;51453;47.738;7.420;2023-06-01T06:57:09;23.80;98.00
64939;DHT22;51453;47.738;7.420;2023-06-01T06:59:35;23.30;97.80
64939;DHT22;51453;47.738;7.420;2023-06-01T07:02:02;23.10;98.40
64939;DHT22;51453;47.738;7.420;2023-06-01T07:04:28;23.30;98.00
64939;DHT22;51453;47.738;7.420;2023-06-01T07:06:54;23.20;99.90
64939;DHT22;51453;47.738;7.420;2023-06-01T07:09:20;23.20;98.40
64939;DHT22;51453;47.738;7.420;2023-06-01T07:11:46;23.00;99.20
64939;DHT22;51453;47.738;7.420;2023-06-01T07:14:13;22.80;99.90
64939;DHT22;51453;47.738;7.420;2023-06-01T07:16:39;22.80;99.50
64939;DHT22;51453;47.738;7.420;2023-06-01T07:19:06;22.90;99.90
64939;DHT22;51453;47.738;7.420;2023-06-01T07:21:31;22.60;99.20
64939;DHT22;51453;47.738;7.420;2023-06-01T07:23:58;22.50;99.90
64939;DHT22;51453;47.738;7.420;2023-06-01T07:26:24;22.10;99.90
64939;DHT22;51453;47.738;7.420;2023-06-01T07:28:54;22.00;99.90
64939;DHT22;51453;47.738;7.420;2023-06-01T07:31:22;22.00;99.90
64939;DHT22;51453;47.738;7.420;2023-06-01T07:33:48;22.40;99.90
64939;DHT22;51453;47.738;7.420;2023-06-01T07:36:14;22.40;99.90
64939;DHT22;51453;47.738;7.420;2023-06-01T07:38:40;22.60;99.40
64939;DHT22;51453;47.738;7.420;2023-06-01T07:41:09;23.00;99.90
64939;DHT22;51453;47.738;7.420;2023-06-01T07:43:37;23.10;99.50
64939;DHT22;51453;47.738;7.420;2023-06-01T07:46:03;23.10;99.90
64939;DHT22;51453;47.738;7.420;2023-06-01T07:48:29;22.90;99.50
64939;DHT22;51453;47.738;7.420;2023-06-01T07:51:04;22.90;99.60
64939;DHT22;51453;47.738;7.420;2023-06-01T07:53:31;22.70;99.90
64939;DHT22;51453;47.738;7.420;2023-06-01T07:55:57;23.00;99.90
64939;DHT22;51453;47.738;7.420;2023-06-01T07:58:23;23.30;99.80
64939;DHT22;51453;47.738;7.420;2023-06-01T08:00:48;23.50;99.90
64939;DHT22;51453;47.738;7.420;2023-06-01T08:03:15;23.40;99.90
64939;DHT22;51453;47.738;7.420;2023-06-01T08:05:41;23.50;99.90
64939;DHT22;51453;47.738;7.420;2023-06-01T08:08:10;23.70;99.10
64939;DHT22;51453;47.738;7.420;2023-06-01T08:10:36;23.30;99.90
64939;DHT22;51453;47.738;7.420;2023-06-01T08:13:04;23.50;99.90
64939;DHT22;51453;47.738;7.420;2023-06-01T08:15:30;23.30;99.90
64939;DHT22;51453;47.738;7.420;2023-06-01T08:17:56;23.50;99.90
64939;DHT22;51453;47.738;7.420;2023-06-01T08:20:22;24.00;99.30
64939;DHT22;51453;47.738;7.420;2023-06-01T08:22:49;24.00;98.30
64939;DHT22;51453;47.738;7.420;2023-06-01T08:25:16;24.00;99.40
64939;DHT22;51453;47.738;7.420;2023-06-01T08:27:41;24.30;98.00
64939;DHT22;51453;47.738;7.420;2023-06-01T08:30:08;24.30;97.70
64939;DHT22;51453;47.738;7.420;2023-06-01T08:32:33;24.40;99.90
64939;DHT22;51453;47.738;7.420;2023-06-01T08:34:59;24.00;98.40
64939;DHT22;51453;47.738;7.420;2023-06-01T08:37:24;24.00;99.00
64939;DHT22;51453;47.738;7.420;2023-06-01T08:39:50;24.00;98.70
64939;DHT22;51453;47.738;7.420;2023-06-01T08:44:45;24.10;99.40
64939;DHT22;51453;47.738;7.420;2023-06-01T08:47:12;24.00;99.90
64939;DHT22;51453;47.738;7.420;2023-06-01T08:49:41;24.40;98.70
64939;DHT22;51453;47.738;7.420;2023-06-01T08:52:11;24.30;99.90
64939;DHT22;51453;47.738;7.420;2023-06-01T08:54:38;24.60;99.30
64939;DHT22;51453;47.738;7.420;2023-06-01T08:57:05;24.90;99.20
64939;DHT22;51453;47.738;7.420;2023-06-01T08:59:34;25.00;97.40
64939;DHT22;51453;47.738;7.420;2023-06-01T09:01:59;24.70;97.30
64939;DHT22;51453;47.738;7.420;2023-06-01T09:04:28;24.90;98.90
64939;DHT22;51453;47.738;7.420;2023-06-01T09:06:59;24.70;99.70
64939;DHT22;51453;47.738;7.420;2023-06-01T09:09:25;24.90;98.00
64939;DHT22;51453;47.738;7.420;2023-06-01T09:14:44;25.30;97.60
64939;DHT22;51453;47.738;7.420;2023-06-01T09:17:23;24.90;98.80
64939;DHT22;51453;47.738;7.420;2023-06-01T09:19:56;25.20;98.20
64939;DHT22;51453;47.738;7.420;2023-06-01T09:22:22;25.50;99.90
64939;DHT22;51453;47.738;7.420;2023-06-01T09:25:06;25.70;98.90
64939;DHT22;51453;47.738;7.420;2023-06-01T09:30:09;25.70;97.60
64939;DHT22;51453;47.738;7.420;2023-06-01T09:32:34;25.70;98.00
64939;DHT22;51453;47.738;7.420;2023-06-01T09:35:00;25.70;98.00
64939;DHT22;51453;47.738;7.420;2023-06-01T09:37:26;25.80;97.60
64939;DHT22;51453;47.738;7.420;2023-06-01T09:39:51;25.50;99.70
64939;DHT22;51453;47.738;7.420;2023-06-01T09:42:18;25.20;99.90
64939;DHT22;51453;47.738;7.420;2023-06-01T09:45:14;24.90;98.40
64939;DHT22;51453;47.738;7.420;2023-06-01T09:47:41;25.10;99.90
64939;DHT22;51453;47.738;7.420;2023-06-01T09:50:07;25.40;97.90
64939;DHT22;51453;47.738;7.420;2023-06-01T09:52:32;25.40;97.00
64939;DHT22;51453;47.738;7.420;2023-06-01T09:55:05;25.30;98.70
64939;DHT22;51453;47.738;7.420;2023-06-01T09:57:32;25.60;98.30
64939;DHT22;51453;47.738;7.420;2023-06-01T09:59:59;25.90;97.70
64939;DHT22;51453;47.738;7.420;2023-06-01T10:02:26;25.90;97.60
64939;DHT22;51453;47.738;7.420;2023-06-01T10:04:53;25.90;98.40
64939;DHT22;51453;47.738;7.420;2023-06-01T10:07:21;25.90;97.30
64939;DHT22;51453;47.738;7.420;2023-06-01T10:09:54;26.10;97.70
64939;DHT22;51453;47.738;7.420;2023-06-01T10:12:21;26.30;95.30
64939;DHT22;51453;47.738;7.420;2023-06-01T10:14:47;26.50;96.10
64939;DHT22;51453;47.738;7.420;2023-06-01T10:17:13;26.50;96.40
64939;DHT22;51453;47.738;7.420;2023-06-01T10:19:42;26.70;96.40
64939;DHT22;51453;47.738;7.420;2023-06-01T10:22:08;26.40;96.40
64939;DHT22;51453;47.738;7.420;2023-06-01T10:24:36;26.40;96.40
64939;DHT22;51453;47.738;7.420;2023-06-01T10:29:46;26.30;97.50
64939;DHT22;51453;47.738;7.420;2023-06-01T10:35:06;26.80;97.50
64939;DHT22;51453;47.738;7.420;2023-06-01T10:37:33;26.60;96.70
64939;DHT22;51453;47.738;7.420;2023-06-01T10:42:49;26.80;96.70
64939;DHT22;51453;47.738;7.420;2023-06-01T10:48:01;27.10;95.80
64939;DHT22;51453;47.738;7.420;2023-06-01T10:50:27;27.00;95.10
64939;DHT22;51453;47.738;7.420;2023-06-01T10:52:56;27.10;95.40
64939;DHT22;51453;47.738;7.420;2023-06-01T10:55:26;27.30;95.70
64939;DHT22;51453;47.738;7.420;2023-06-01T10:58:18;27.00;95.80
64939;DHT22;51453;47.738;7.420;2023-06-01T11:00:40;26.80;94.90
64939;DHT22;51453;47.738;7.420;2023-06-01T11:03:06;26.50;95.70
64939;DHT22;51453;47.738;7.420;2023-06-01T11:05:48;26.80;95.30
64939;DHT22;51453;47.738;7.420;2023-06-01T11:13:36;26.90;96.30
64939;DHT22;51453;47.738;7.420;2023-06-01T11:21:10;26.70;94.80
64939;DHT22;51453;47.738;7.420;2023-06-01T11:23:38;26.80;96.00
64939;DHT22;51453;47.738;7.420;2023-06-01T11:26:07;26.80;97.20
64939;DHT22;51453;47.738;7.420;2023-06-01T11:28:34;26.50;95.20
64939;DHT22;51453;47.738;7.420;2023-06-01T11:31:01;26.60;95.40
64939;DHT22;51453;47.738;7.420;2023-06-01T11:33:31;26.80;96.80
64939;DHT22;51453;47.738;7.420;2023-06-01T11:36:02;27.00;96.00
64939;DHT22;51453;47.738;7.420;2023-06-01T11:38:40;27.00;96.30
64939;DHT22;51453;47.738;7.420;2023-06-01T11:41:09;26.90;94.30
64939;DHT22;51453;47.738;7.420;2023-06-01T11:43:35;26.80;95.80
64939;DHT22;51453;47.738;7.420;2023-06-01T11:46:06;27.10;96.00
64939;DHT22;51453;47.738;7.420;2023-06-01T11:48:37;26.80;96.60
64939;DHT22;51453;47.738;7.420;2023-06-01T11:51:04;27.20;95.80
64939;DHT22;51453;47.738;7.420;2023-06-01T11:53:30;27.60;96.80
64939;DHT22;51453;47.738;7.420;2023-06-01T11:55:57;27.80;94.40
64939;DHT22;51453;47.738;7.420;2023-06-01T11:58:30;27.30;93.80
64939;DHT22;51453;47.738;7.420;2023-06-01T12:00:57;27.20;94.20
64939;DHT22;51453;47.738;7.420;2023-06-01T12:03:23;27.40;94.50
64939;DHT22;51453;47.738;7.420;2023-06-01T12:05:52;27.50;93.40
64939;DHT22;51453;47.738;7.420;2023-06-01T12:08:22;27.60;93.40
64939;DHT22;51453;47.738;7.420;2023-06-01T12:10:50;27.50;94.60
64939;DHT22;51453;47.738;7.420;2023-06-01T12:13:19;27.80;94.10
64939;DHT22;51453;47.738;7.420;2023-06-01T12:15:45;27.80;96.00
64939;DHT22;51453;47.738;7.420;2023-06-01T12:18:11;27.70;93.50
64939;DHT22;51453;47.738;7.420;2023-06-01T12:20:42;28.00;94.30
64939;DHT22;51453;47.738;7.420;2023-06-01T12:28:17;28.20;94.90
64939;DHT22;51453;47.738;7.420;2023-06-01T12:30:43;28.50;93.30
64939;DHT22;51453;47.738;7.420;2023-06-01T12:33:09;28.70;95.50
64939;DHT22;51453;47.738;7.420;2023-06-01T12:35:54;28.70;94.20
64939;DHT22;51453;47.738;7.420;2023-06-01T12:38:20;28.30;92.50
64939;DHT22;51453;47.738;7.420;2023-06-01T12:40:45;28.60;93.10
64939;DHT22;51453;47.738;7.420;2023-06-01T12:43:19;28.20;94.80
64939;DHT22;51453;47.738;7.420;2023-06-01T12:45:45;28.20;92.40
64939;DHT22;51453;47.738;7.420;2023-06-01T12:48:29;28.20;94.30
64939;DHT22;51453;47.738;7.420;2023-06-01T12:50:56;28.60;93.90
64939;DHT22;51453;47.738;7.420;2023-06-01T12:53:21;28.80;93.30
64939;DHT22;51453;47.738;7.420;2023-06-01T12:55:47;28.50;92.70
64939;DHT22;51453;47.738;7.420;2023-06-01T12:58:13;28.60;94.50
64939;DHT22;51453;47.738;7.420;2023-06-01T13:00:38;28.60;93.10
64939;DHT22;51453;47.738;7.420;2023-06-01T13:03:04;28.60;94.80
64939;DHT22;51453;47.738;7.420;2023-06-01T13:05:30;28.70;92.20
64939;DHT22;51453;47.738;7.420;2023-06-01T13:07:56;28.70;91.70
64939;DHT22;51453;47.738;7.420;2023-06-01T13:10:22;28.60;92.20
64939;DHT22;51453;47.738;7.420;2023-06-01T13:12:48;28.50;93.30
64939;DHT22;51453;47.738;7.420;2023-06-01T13:15:14;28.30;92.20
64939;DHT22;51453;47.738;7.420;2023-06-01T13:17:39;28.40;94.20
64939;DHT22;51453;47.738;7.420;2023-06-01T13:20:05;28.70;92.50
64939;DHT22;51453;47.738;7.420;2023-06-01T13:22:32;28.90;93.10
64939;DHT22;51453;47.738;7.420;2023-06-01T13:24:58;29.10;90.80
64939;DHT22;51453;47.738;7.420;2023-06-01T13:27:23;29.50;92.30
64939;DHT22;51453;47.738;7.420;2023-06-01T13:29:49;30.30;91.10
64939;DHT22;51453;47.738;7.420;2023-06-01T13:32:15;30.60;88.90
64939;DHT22;51453;47.738;7.420;2023-06-01T13:34:41;31.10;88.30
64939;DHT22;51453;47.738;7.420;2023-06-01T13:37:06;31.50;89.60
64939;DHT22;51453;47.738;7.420;2023-06-01T13:39:32;31.70;87.40
64939;DHT22;51453;47.738;7.420;2023-06-01T13:41:58;31.10;87.80
64939;DHT22;51453;47.738;7.420;2023-06-01T13:44:23;30.80;88.40
64939;DHT22;51453;47.738;7.420;2023-06-01T13:46:49;30.70;91.30
64939;DHT22;51453;47.738;7.420;2023-06-01T13:49:15;30.50;89.40
64939;DHT22;51453;47.738;7.420;2023-06-01T13:51:40;30.70;89.40
64939;DHT22;51453;47.738;7.420;2023-06-01T13:54:06;30.80;89.20
64939;DHT22;51453;47.738;7.420;2023-06-01T13:56:32;30.30;87.70
64939;DHT22;51453;47.738;7.420;2023-06-01T13:58:57;29.90;90.90
64939;DHT22;51453;47.738;7.420;2023-06-01T14:01:23;29.40;87.80
64939;DHT22;51453;47.738;7.420;2023-06-01T14:03:50;29.20;89.40
64939;DHT22;51453;47.738;7.420;2023-06-01T14:06:15;29.20;90.20
64939;DHT22;51453;47.738;7.420;2023-06-01T14:08:41;29.40;90.20
64939;DHT22;51453;47.738;7.420;2023-06-01T14:11:07;29.20;92.60
64939;DHT22;51453;47.738;7.420;2023-06-01T14:13:32;29.50;90.50
64939;DHT22;51453;47.738;7.420;2023-06-01T14:15:58;29.80;90.40
64939;DHT22;51453;47.738;7.420;2023-06-01T14:18:24;30.20;89.80
64939;DHT22;51453;47.738;7.420;2023-06-01T14:20:49;29.90;86.80
64939;DHT22;51453;47.738;7.420;2023-06-01T14:23:15;29.90;90.50
64939;DHT22;51453;47.738;7.420;2023-06-01T14:25:41;30.20;90.00
64939;DHT22;51453;47.738;7.420;2023-06-01T14:28:07;29.80;88.20
64939;DHT22;51453;47.738;7.420;2023-06-01T14:30:32;28.80;87.40
64939;DHT22;51453;47.738;7.420;2023-06-01T14:33:01;28.30;88.70
64939;DHT22;51453;47.738;7.420;2023-06-01T14:35:26;28.40;92.10
64939;DHT22;51453;47.738;7.420;2023-06-01T14:37:52;28.40;88.90
64939;DHT22;51453;47.738;7.420;2023-06-01T14:40:19;28.30;89.00
64939;DHT22;51453;47.738;7.420;2023-06-01T14:42:45;28.70;90.50
64939;DHT22;51453;47.738;7.420;2023-06-01T14:45:12;29.10;89.40
64939;DHT22;51453;47.738;7.420;2023-06-01T14:47:42;29.70;90.60
64939;DHT22;51453;47.738;7.420;2023-06-01T14:50:08;29.90;86.00
64939;DHT22;51453;47.738;7.420;2023-06-01T14:52:35;30.20;87.80
64939;DHT22;51453;47.738;7.420;2023-06-01T14:55:16;30.40;84.40
64939;DHT22;51453;47.738;7.420;2023-06-01T14:57:44;30.50;85.60
64939;DHT22;51453;47.738;7.420;2023-06-01T15:00:11;30.10;84.30
64939;DHT22;51453;47.738;7.420;2023-06-01T15:02:36;29.90;83.50
64939;DHT22;51453;47.738;7.420;2023-06-01T15:05:02;29.60;84.70
64939;DHT22;51453;47.738;7.420;2023-06-01T15:07:28;29.60;85.80
64939;DHT22;51453;47.738;7.420;2023-06-01T15:09:54;29.50;84.50
64939;DHT22;51453;47.738;7.420;2023-06-01T15:12:19;29.40;85.10
64939;DHT22;51453;47.738;7.420;2023-06-01T15:14:45;29.60;86.20
64939;DHT22;51453;47.738;7.420;2023-06-01T15:17:18;29.70;87.30
64939;DHT22;51453;47.738;7.420;2023-06-01T15:19:46;30.20;84.80
64939;DHT22;51453;47.738;7.420;2023-06-01T15:22:12;30.60;85.40
64939;DHT22;51453;47.738;7.420;2023-06-01T15:24:40;31.10;84.00
64939;DHT22;51453;47.738;7.420;2023-06-01T15:27:07;31.40;82.90
64939;DHT22;51453;47.738;7.420;2023-06-01T15:29:33;30.90;81.60
64939;DHT22;51453;47.738;7.420;2023-06-01T15:32:01;30.50;83.90
64939;DHT22;51453;47.738;7.420;2023-06-01T15:34:31;30.40;83.70
64939;DHT22;51453;47.738;7.420;2023-06-01T15:36:57;30.10;86.30
64939;DHT22;51453;47.738;7.420;2023-06-01T15:39:23;29.80;83.30
64939;DHT22;51453;47.738;7.420;2023-06-01T15:41:49;29.90;84.00
64939;DHT22;51453;47.738;7.420;2023-06-01T15:44:14;29.80;85.80
64939;DHT22;51453;47.738;7.420;2023-06-01T15:46:40;30.00;83.70
64939;DHT22;51453;47.738;7.420;2023-06-01T15:49:08;29.90;84.30
64939;DHT22;51453;47.738;7.420;2023-06-01T15:51:34;29.50;82.70
64939;DHT22;51453;47.738;7.420;2023-06-01T15:54:00;29.10;83.70
64939;DHT22;51453;47.738;7.420;2023-06-01T15:56:26;28.90;85.90
64939;DHT22;51453;47.738;7.420;2023-06-01T15:58:52;28.60;85.60
64939;DHT22;51453;47.738;7.420;2023-06-01T16:01:17;28.40;84.30
64939;DHT22;51453;47.738;7.420;2023-06-01T16:03:46;28.60;85.50
64939;DHT22;51453;47.738;7.420;2023-06-01T16:06:12;29.10;88.40
64939;DHT22;51453;47.738;7.420;2023-06-01T16:08:38;29.30;84.50
64939;DHT22;51453;47.738;7.420;2023-06-01T16:11:03;29.30;84.90
64939;DHT22;51453;47.738;7.420;2023-06-01T16:13:29;29.10;83.30
64939;DHT22;51453;47.738;7.420;2023-06-01T16:15:56;28.60;84.60